Europa — C6QK8 — position and weather

sailwx.info

Track history (hours):
 
Tides and Currents Weather Stations Pressure Air Temp Water Temp Dewpoint Dewpoint Depression Visibility Wind Speed Wind Dir Waves Ship Positions

Europa

Operator: Hapag-Lloyd Container Line

Last reported at 2019-Jul-19 04:19 UTC. Time now 2019-Jul-19 18:33 UTC.
Position N 63°22' W 019°57'.

Length 199 m; draft 6.2 m.

Type: Passenger vessel. MMSI: 308007000.

Date/timePositionNaut miles runAvg speedWind from/ knotsBaromVisibWave heightAir tempDewpointWater temp
2019-Jul-19 04:19N 63°22' W 019°57'413.8
2019-Jul-19 04:00N 63°20' W 019°49'816.7
2019-Jul-19 03:30N 63°15' W 019°34'816.7
2019-Jul-19 03:00N 63°11' W 019°18'816.5
2019-Jul-19 02:30N 63°07' W 019°02'816.5
2019-Jul-19 02:00N 63°04' W 018°45'60912.6
2019-Jul-17 01:45N 59°22' E 000°53'417.3
2019-Jul-17 01:29N 59°19' E 001°00'817.3
2019-Jul-17 01:00N 59°14' E 001°14'917.2
2019-Jul-17 00:30N 59°09' E 001°27'917.1
2019-Jul-17 00:00N 59°04' E 001°41'917.2
2019-Jul-16 23:30N 59°01' E 001°57'917.1
2019-Jul-16 23:00N 58°58' E 002°12'917.0
2019-Jul-16 22:30N 58°56' E 002°28'816.8
2019-Jul-16 22:00N 58°53' E 002°43'816.9
2019-Jul-16 21:30N 58°50' E 002°58'816.8
2019-Jul-16 21:00N 58°47' E 003°14'916.8
2019-Jul-16 20:30N 58°44' E 003°29'917.1
2019-Jul-16 19:59N 58°41' E 003°45'817.2
2019-Jul-16 19:30N 58°39' E 003°60'917.1
2019-Jul-16 19:00N 58°36' E 004°15'817.0
2019-Jul-16 18:30N 58°33' E 004°31'816.8
2019-Jul-16 18:00N 58°30' E 004°46'816.8
2019-Jul-16 17:30N 58°27' E 005°01'917.1
2019-Jul-16 17:00N 58°24' E 005°16'816.5
2019-Jul-16 16:30N 58°19' E 005°29'816.6
2019-Jul-16 16:00N 58°13' E 005°41'816.5
2019-Jul-16 15:30N 58°08' E 005°53'816.5
2019-Jul-16 15:00N 58°02' E 006°04'816.5
2019-Jul-16 14:30N 57°57' E 006°16'816.6
2019-Jul-16 14:00N 57°52' E 006°28'816.3
2019-Jul-16 13:30N 57°47' E 006°40'816.8
2019-Jul-16 13:00N 57°46' E 006°55'817.0
2019-Jul-16 12:30N 57°47' E 007°11'816.9
2019-Jul-16 12:01N 57°47' E 007°27'816.9
2019-Jul-16 11:30N 57°47' E 007°43'816.7
2019-Jul-16 11:00N 57°47' E 007°59'815.3
2019-Jul-16 10:30N 57°47' E 008°13'918.2
2019-Jul-16 10:00N 57°47' E 008°30'918.3
2019-Jul-16 09:30N 57°48' E 008°47'918.4
2019-Jul-16 09:00N 57°48' E 009°04'1018.7
2019-Jul-16 08:30N 57°48' E 009°22'918.7
2019-Jul-16 08:00N 57°49' E 009°40'1018.9
2019-Jul-16 07:29N 57°48' E 009°58'918.6
2019-Jul-16 07:01N 57°49' E 010°15'918.6
2019-Jul-16 06:30N 57°48' E 010°32'918.0
2019-Jul-16 06:00N 57°47' E 010°49'918.5
2019-Jul-16 05:30N 57°40' E 011°01'918.3
2019-Jul-16 05:00N 57°34' E 011°14'918.1
2019-Jul-16 04:30N 57°28' E 011°27'918.7
2019-Jul-16 04:00N 57°19' E 011°32'918.2
2019-Jul-16 03:30N 57°11' E 011°38'918.2
2019-Jul-16 03:00N 57°02' E 011°44'1018.8
2019-Jul-16 02:28N 56°53' E 011°50'1516.3
2019-Jul-16 01:33N 56°38' E 011°47'218.9
2019-Jul-16 01:25N 56°36' E 011°44'919.1
2019-Jul-16 00:56N 56°28' E 011°36'918.9
2019-Jul-16 00:27N 56°20' E 011°28'918.2
2019-Jul-15 23:57N 56°12' E 011°20'918.4
2019-Jul-15 23:28N 56°06' E 011°09'918.3
2019-Jul-15 22:59N 55°58' E 011°01'918.2
2019-Jul-15 22:30N 55°51' E 010°51'917.6
2019-Jul-15 22:00N 55°42' E 010°48'917.8
2019-Jul-15 21:29N 55°33' E 010°51'917.8
2019-Jul-15 20:59N 55°26' E 010°59'917.8
2019-Jul-15 20:30N 55°18' E 011°03'917.2
2019-Jul-15 20:00N 55°09' E 011°04'918.8
2019-Jul-15 19:30N 54°60' E 011°02'918.4
2019-Jul-15 19:00N 54°52' E 010°54'918.2
2019-Jul-15 18:30N 54°43' E 010°53'917.3
2019-Jul-15 18:00N 54°36' E 010°44'918.3
2019-Jul-15 17:30N 54°32' E 010°29'816.0
2019-Jul-15 17:00N 54°29' E 010°17'612.4
2019-Jul-15 16:30N 54°23' E 010°12'4 8.3
2019-Jul-15 16:00N 54°20' E 010°09'0 0.0
2019-Jul-15 15:29N 54°20' E 010°09'0 0.0
2019-Jul-15 14:59N 54°20' E 010°09'0 0.0
2019-Jul-15 14:29N 54°20' E 010°09'0 0.0
2019-Jul-15 13:59N 54°20' E 010°09'0 0.0
2019-Jul-15 13:29N 54°20' E 010°09'0 0.0
2019-Jul-15 12:59N 54°20' E 010°09'0 0.0
2019-Jul-15 12:29N 54°20' E 010°09'0 0.0
2019-Jul-15 11:59N 54°20' E 010°09'0 0.0
2019-Jul-15 11:29N 54°20' E 010°09'0 0.0
2019-Jul-15 10:59N 54°20' E 010°09'0 0.0
2019-Jul-15 10:29N 54°20' E 010°09'0 0.0
2019-Jul-15 09:59N 54°20' E 010°09'0 0.0
2019-Jul-15 09:29N 54°20' E 010°09'0 0.0
2019-Jul-15 08:59N 54°20' E 010°09'0 0.0
2019-Jul-15 08:29N 54°20' E 010°09'0 0.0
2019-Jul-15 07:59N 54°20' E 010°09'0 0.0
2019-Jul-15 07:29N 54°20' E 010°09'0 0.0
2019-Jul-15 06:59N 54°20' E 010°09'0 0.0
2019-Jul-15 06:29N 54°20' E 010°09'0 0.0
2019-Jul-15 05:59N 54°20' E 010°09'0 0.0
2019-Jul-15 05:29N 54°20' E 010°09'0 0.0
2019-Jul-15 04:59N 54°20' E 010°09'0 0.0
2019-Jul-15 04:31N 54°20' E 010°09'0 0.1
2019-Jul-15 04:00N 54°19' E 010°09'4 8.5
2019-Jul-15 03:30N 54°23' E 010°12'713.3
2019-Jul-15 03:01N 54°29' E 010°17'612.2
2019-Jul-15 02:30N 54°32' E 010°26'613.0
2019-Jul-15 02:00N 54°35' E 010°36'611.9
2019-Jul-15 01:31N 54°39' E 010°44'611.6
2019-Jul-15 01:01N 54°42' E 010°52'611.9
2019-Jul-15 00:30N 54°48' E 010°52'612.1
2019-Jul-15 00:01N 54°54' E 010°53'611.8
2019-Jul-14 23:31N 54°59' E 010°60'611.8
2019-Jul-14 23:00N 55°05' E 011°02'612.1
2019-Jul-14 22:31N 55°11' E 011°04'510.6
2019-Jul-14 22:00N 55°16' E 011°04'612.4
2019-Jul-14 21:30N 55°22' E 011°02'712.8
2019-Jul-14 20:57N 55°28' E 010°55'612.9
2019-Jul-14 20:29N 55°33' E 010°50'612.3
2019-Jul-14 19:59N 55°39' E 010°45'612.3
2019-Jul-14 19:30N 55°39' E 010°35'713.3
2019-Jul-14 19:00N 55°40' E 010°23'713.4
2019-Jul-14 18:30N 55°40' E 010°11'913.1
2019-Jul-14 17:47N 55°37' E 009°56'712.6
2019-Jul-14 17:16N 55°33' E 009°46'0 1.3
2019-Jul-14 16:55N 55°33' E 009°46'0 0.0
2019-Jul-14 15:40N 55°33' E 009°46'0 0.0
2019-Jul-14 15:28N 55°33' E 009°46'0 0.0
2019-Jul-14 14:55N 55°33' E 009°46'0 0.0
2019-Jul-14 14:28N 55°33' E 009°46'0 0.0
2019-Jul-14 13:19N 55°33' E 009°46'0 0.0
2019-Jul-14 12:25N 55°33' E 009°46'0 0.0
2019-Jul-14 10:22N 55°33' E 009°46'0 0.1
2019-Jul-14 09:56N 55°33' E 009°45'6 9.4
2019-Jul-14 09:20N 55°36' E 009°54'916.6
2019-Jul-14 08:46N 55°41' E 010°08'616.9
2019-Jul-14 08:25N 55°40' E 010°19'816.7
2019-Jul-14 07:56N 55°39' E 010°33'916.7
2019-Jul-14 07:25N 55°43' E 010°47'716.7
2019-Jul-14 07:00N 55°50' E 010°49'916.8
2019-Jul-14 06:27N 55°57' E 010°59'916.7
2019-Jul-14 05:54N 56°05' E 011°07'716.7
2019-Jul-14 05:30N 56°10' E 011°15'816.8
2019-Jul-14 05:00N 56°17' E 011°23'816.7
2019-Jul-14 04:30N 56°24' E 011°30'816.5
2019-Jul-14 04:00N 56°32' E 011°37'816.8
2019-Jul-14 03:30N 56°39' E 011°45'816.5
2019-Jul-14 03:00N 56°47' E 011°50'917.1
2019-Jul-14 02:30N 56°55' E 011°46'917.2
2019-Jul-14 02:00N 57°03' E 011°40'917.5
2019-Jul-14 01:30N 57°11' E 011°33'816.9
2019-Jul-14 01:00N 57°19' E 011°29'816.1
2019-Jul-14 00:31N 57°26' E 011°24'816.5
2019-Jul-14 00:00N 57°32' E 011°13'816.9
2019-Jul-13 23:31N 57°37' E 011°00'917.2
2019-Jul-13 23:00N 57°44' E 010°51'816.7
2019-Jul-13 22:31N 57°47' E 010°37'917.6
2019-Jul-13 22:00N 57°46' E 010°21'917.6
2019-Jul-13 21:30N 57°44' E 010°05'918.7
2019-Jul-13 21:00N 57°41' E 009°48'1019.3
2019-Jul-13 20:31N 57°38' E 009°31'1019.1
2019-Jul-13 20:00N 57°35' E 009°14'1019.0
2019-Jul-13 19:30N 57°31' E 008°58'918.7
2019-Jul-13 19:00N 57°27' E 008°42'918.7
2019-Jul-13 18:30N 57°23' E 008°26'918.2
2019-Jul-13 18:00N 57°16' E 008°15'918.6
2019-Jul-13 17:30N 57°09' E 008°05'918.4
2019-Jul-13 17:00N 57°01' E 007°55'917.9
2019-Jul-13 16:30N 56°53' E 007°50'918.1
2019-Jul-13 16:00N 56°44' E 007°47'918.1
2019-Jul-13 15:30N 56°35' E 007°44'918.1
2019-Jul-13 14:59N 56°26' E 007°39'918.1
2019-Jul-13 14:30N 56°18' E 007°35'918.3
2019-Jul-13 14:00N 56°08' E 007°31'918.5
2019-Jul-13 13:30N 55°60' E 007°29'918.3
2019-Jul-13 13:00N 55°51' E 007°22'918.4
2019-Jul-13 12:30N 55°42' E 007°18'918.1
2019-Jul-13 12:00N 55°33' E 007°22'1018.9
2019-Jul-13 11:30N 55°27' E 007°34'918.8
2019-Jul-13 11:00N 55°20' E 007°45'918.8
2019-Jul-13 10:30N 55°13' E 007°57'1018.0
2019-Jul-13 09:57N 55°07' E 008°10'8 8.3
2019-Jul-13 09:00N 55°04' E 008°23'4 1.7
2019-Jul-13 06:56N 55°01' E 008°27'0 0.0
2019-Jul-13 05:35N 55°01' E 008°27'54 1.9
2019-Jul-12 00:51N 54°10' E 008°01'4 9.1
2019-Jul-12 00:28N 54°06' E 008°02'4 9.5
2019-Jul-12 00:00N 54°02' E 008°04'611.3
2019-Jul-11 23:30N 54°00' E 008°13'816.3
2019-Jul-11 23:00N 53°59' E 008°26'917.0
2019-Jul-11 22:30N 53°56' E 008°40'713.7
2019-Jul-11 22:00N 53°51' E 008°47'815.6
2019-Jul-11 21:30N 53°51' E 009°00'612.8
2019-Jul-11 21:01N 53°53' E 009°11'510.2
2019-Jul-11 20:31N 53°51' E 009°19'611.5
2019-Jul-11 20:01N 53°46' E 009°24'510.9
2019-Jul-11 19:31N 53°42' E 009°30'510.5
2019-Jul-11 19:01N 53°37' E 009°33'510.4
2019-Jul-11 18:31N 53°34' E 009°40'5 9.1
2019-Jul-11 18:01N 53°33' E 009°48'5 9.5
2019-Jul-11 17:31N 53°33' E 009°56'2 4.9
2019-Jul-11 17:01N 53°32' E 009°60'0 0.0
2019-Jul-11 16:30N 53°32' E 009°60'0 0.0
2019-Jul-11 15:59N 53°32' E 009°60'0 0.0
2019-Jul-11 15:30N 53°32' E 009°60'0 0.0
2019-Jul-11 15:00N 53°32' E 009°60'0 0.0
2019-Jul-11 14:30N 53°32' E 009°60'0 0.0
2019-Jul-11 14:00N 53°32' E 009°60'0 0.0
2019-Jul-11 13:29N 53°32' E 009°60'0 0.0
2019-Jul-11 13:00N 53°32' E 009°60'0 0.0
2019-Jul-11 12:30N 53°32' E 009°60'0 0.0
2019-Jul-11 12:00N 53°32' E 009°60'0 0.0
2019-Jul-11 11:30N 53°32' E 009°60'0 0.0
2019-Jul-11 11:00N 53°32' E 009°60'0 0.0
2019-Jul-11 10:30N 53°32' E 009°60'0 0.0
2019-Jul-11 10:00N 53°32' E 009°60'0 0.0
2019-Jul-11 09:30N 53°32' E 009°60'0 0.0
2019-Jul-11 09:00N 53°32' E 009°60'0 0.0
2019-Jul-11 08:30N 53°32' E 009°60'0 0.0
2019-Jul-11 08:00N 53°32' E 009°60'0 0.0
2019-Jul-11 07:29N 53°32' E 009°60'0 0.0
2019-Jul-11 06:57N 53°32' E 009°60'0 0.0
2019-Jul-11 06:30N 53°32' E 009°60'0 0.0
2019-Jul-11 06:00N 53°32' E 009°60'0 0.0
2019-Jul-11 05:30N 53°32' E 009°60'0 0.0
2019-Jul-11 05:00N 53°32' E 009°60'0 0.0
2019-Jul-11 04:30N 53°32' E 009°60'0 0.0
2019-Jul-11 04:00N 53°32' E 009°60'0 0.0
2019-Jul-11 03:30N 53°32' E 009°60'0 0.0
2019-Jul-11 03:00N 53°32' E 009°60'0 0.0
2019-Jul-11 02:29N 53°32' E 009°60'0 0.0
2019-Jul-11 02:00N 53°32' E 009°60'0 0.0
2019-Jul-11 01:30N 53°32' E 009°60'0 0.0
2019-Jul-11 01:00N 53°32' E 009°60'0 0.0
2019-Jul-11 00:30N 53°32' E 009°60'0 0.0
2019-Jul-11 00:00N 53°32' E 009°60'0 0.0
2019-Jul-10 23:30N 53°32' E 009°60'0 0.0
2019-Jul-10 23:00N 53°32' E 009°60'0 0.0
2019-Jul-10 22:29N 53°32' E 009°60'0 0.0
2019-Jul-10 22:00N 53°32' E 009°60'0 0.0
2019-Jul-10 21:30N 53°32' E 009°60'0 0.0
2019-Jul-10 21:00N 53°32' E 009°60'0 0.0
2019-Jul-10 20:30N 53°32' E 009°60'0 0.0
2019-Jul-10 20:00N 53°32' E 009°60'0 0.0
2019-Jul-10 19:30N 53°32' E 009°60'2 3.0
2019-Jul-10 19:00N 53°33' E 009°57'4 8.1
2019-Jul-10 18:31N 53°33' E 009°51'510.6
2019-Jul-10 18:01N 53°34' E 009°42'612.7
2019-Jul-10 17:30N 53°37' E 009°33'612.8
2019-Jul-10 17:00N 53°43' E 009°28'713.5
2019-Jul-10 16:30N 53°49' E 009°22'713.4
2019-Jul-10 16:00N 53°53' E 009°13'611.2
2019-Jul-10 15:30N 53°52' E 009°03'612.6
2019-Jul-10 15:00N 53°50' E 008°53'612.0
2019-Jul-10 14:30N 53°52' E 008°43'713.8
2019-Jul-10 14:00N 53°58' E 008°36'816.5
2019-Jul-10 13:30N 53°59' E 008°22'815.3
2019-Jul-10 13:00N 53°59' E 008°09'816.0
2019-Jul-10 12:30N 53°58' E 007°56'917.2
2019-Jul-10 11:58N 53°56' E 007°41'816.9
2019-Jul-10 11:30N 53°54' E 007°28'816.7
2019-Jul-10 11:00N 53°52' E 007°14'816.5
2019-Jul-10 10:30N 53°50' E 007°01'816.3
2019-Jul-10 10:00N 53°48' E 006°47'816.1
2019-Jul-10 09:30N 53°46' E 006°34'5016.0
2019-Jul-10 06:23N 53°31' E 005°13'615.9
2019-Jul-10 05:59N 53°29' E 005°03'816.0
2019-Jul-10 05:30N 53°26' E 004°51'815.7
2019-Jul-10 05:00N 53°22' E 004°40'816.4
2019-Jul-10 04:30N 53°14' E 004°35'816.4
2019-Jul-10 04:00N 53°07' E 004°29'816.5
2019-Jul-10 03:30N 53°00' E 004°21'816.4
2019-Jul-10 03:00N 52°53' E 004°17'816.3
2019-Jul-10 02:30N 52°46' E 004°09'816.3
2019-Jul-10 02:00N 52°40' E 004°00'816.4
2019-Jul-10 01:30N 52°34' E 003°51'816.6
2019-Jul-10 01:00N 52°28' E 003°41'816.9
2019-Jul-10 00:30N 52°22' E 003°31'917.1
2019-Jul-10 00:00N 52°16' E 003°21'917.4
2019-Jul-09 23:30N 52°10' E 003°11'917.6
2019-Jul-09 23:00N 52°03' E 003°03'713.6
2019-Jul-09 22:30N 51°59' E 002°54'918.0
2019-Jul-09 22:00N 51°52' E 002°45'918.2
2019-Jul-09 21:30N 51°45' E 002°35'918.4
2019-Jul-09 21:01N 51°38' E 002°26'918.5
2019-Jul-09 20:30N 51°31' E 002°16'918.2
2019-Jul-09 20:00N 51°23' E 002°08'816.4
2019-Jul-09 19:30N 51°15' E 002°05'918.8
2019-Jul-09 19:01N 51°10' E 001°53'1019.4
2019-Jul-09 18:31N 51°06' E 001°38'918.4
2019-Jul-09 18:00N 51°06' E 001°24'3 3.8
2019-Jul-09 17:15N 51°07' E 001°19'0 0.0
2019-Jul-09 17:00N 51°07' E 001°19'0 0.0
2019-Jul-09 16:27N 51°07' E 001°19'0 0.0
2019-Jul-09 15:54N 51°07' E 001°19'0 0.0
2019-Jul-09 15:30N 51°07' E 001°19'0 0.0
2019-Jul-09 15:00N 51°07' E 001°19'0 0.0
2019-Jul-09 14:30N 51°07' E 001°19'0 0.0
2019-Jul-09 13:54N 51°07' E 001°19'0 0.0
2019-Jul-09 13:24N 51°07' E 001°19'0 0.0
2019-Jul-09 13:00N 51°07' E 001°19'0 0.0
2019-Jul-09 12:21N 51°07' E 001°19'0 0.0
2019-Jul-09 12:00N 51°07' E 001°19'0 0.0
2019-Jul-09 11:30N 51°07' E 001°19'0 0.0
2019-Jul-09 11:00N 51°07' E 001°19'0 0.0
2019-Jul-09 10:30N 51°07' E 001°19'0 0.0
2019-Jul-09 10:00N 51°07' E 001°19'0 0.0
2019-Jul-09 09:30N 51°07' E 001°19'0 0.0
2019-Jul-09 08:57N 51°07' E 001°19'0 0.0
2019-Jul-09 08:30N 51°07' E 001°19'0 0.0
2019-Jul-09 08:00N 51°07' E 001°19'0 0.0
2019-Jul-09 07:27N 51°07' E 001°19'0 0.0
2019-Jul-09 06:57N 51°07' E 001°19'0 0.0
2019-Jul-09 06:30N 51°07' E 001°19'0 0.4
2019-Jul-09 06:01N 51°07' E 001°20'3 5.7
2019-Jul-09 05:30N 51°07' E 001°24'4 9.0
2019-Jul-09 05:00N 51°03' E 001°28'4 8.3
2019-Jul-09 04:30N 50°59' E 001°27'  
Track history (hours):
 
Tides and Currents Weather Stations Pressure Air Temp Water Temp Dewpoint Dewpoint Depression Visibility Wind Speed Wind Dir Waves Ship Positions

Europa

Operator: Hapag-Lloyd Container Line

Last reported at 2019-Jul-19 04:19 UTC. Time now 2019-Jul-19 18:33 UTC.
Position N 63°22' W 019°57'.

Length 199 m; draft 6.2 m.

Type: Passenger vessel. MMSI: 308007000.

Date/timePositionNaut miles runAvg speedWind from/ knotsBaromVisibWave heightAir tempDewpointWater temp
2019-Jul-19 04:19N 63°22' W 019°57'413.8
2019-Jul-19 04:00N 63°20' W 019°49'816.7
2019-Jul-19 03:30N 63°15' W 019°34'816.7
2019-Jul-19 03:00N 63°11' W 019°18'816.5
2019-Jul-19 02:30N 63°07' W 019°02'816.5
2019-Jul-19 02:00N 63°04' W 018°45'60912.6
2019-Jul-17 01:45N 59°22' E 000°53'417.3
2019-Jul-17 01:29N 59°19' E 001°00'817.3
2019-Jul-17 01:00N 59°14' E 001°14'917.2
2019-Jul-17 00:30N 59°09' E 001°27'917.1
2019-Jul-17 00:00N 59°04' E 001°41'917.2
2019-Jul-16 23:30N 59°01' E 001°57'917.1
2019-Jul-16 23:00N 58°58' E 002°12'917.0
2019-Jul-16 22:30N 58°56' E 002°28'816.8
2019-Jul-16 22:00N 58°53' E 002°43'816.9
2019-Jul-16 21:30N 58°50' E 002°58'816.8
2019-Jul-16 21:00N 58°47' E 003°14'916.8
2019-Jul-16 20:30N 58°44' E 003°29'917.1
2019-Jul-16 19:59N 58°41' E 003°45'817.2
2019-Jul-16 19:30N 58°39' E 003°60'917.1
2019-Jul-16 19:00N 58°36' E 004°15'817.0
2019-Jul-16 18:30N 58°33' E 004°31'816.8
2019-Jul-16 18:00N 58°30' E 004°46'816.8
2019-Jul-16 17:30N 58°27' E 005°01'917.1
2019-Jul-16 17:00N 58°24' E 005°16'816.5
2019-Jul-16 16:30N 58°19' E 005°29'816.6
2019-Jul-16 16:00N 58°13' E 005°41'816.5
2019-Jul-16 15:30N 58°08' E 005°53'816.5
2019-Jul-16 15:00N 58°02' E 006°04'816.5
2019-Jul-16 14:30N 57°57' E 006°16'816.6
2019-Jul-16 14:00N 57°52' E 006°28'816.3
2019-Jul-16 13:30N 57°47' E 006°40'816.8
2019-Jul-16 13:00N 57°46' E 006°55'817.0
2019-Jul-16 12:30N 57°47' E 007°11'816.9
2019-Jul-16 12:01N 57°47' E 007°27'816.9
2019-Jul-16 11:30N 57°47' E 007°43'816.7
2019-Jul-16 11:00N 57°47' E 007°59'815.3
2019-Jul-16 10:30N 57°47' E 008°13'918.2
2019-Jul-16 10:00N 57°47' E 008°30'918.3
2019-Jul-16 09:30N 57°48' E 008°47'918.4
2019-Jul-16 09:00N 57°48' E 009°04'1018.7
2019-Jul-16 08:30N 57°48' E 009°22'918.7
2019-Jul-16 08:00N 57°49' E 009°40'1018.9
2019-Jul-16 07:29N 57°48' E 009°58'918.6
2019-Jul-16 07:01N 57°49' E 010°15'918.6
2019-Jul-16 06:30N 57°48' E 010°32'918.0
2019-Jul-16 06:00N 57°47' E 010°49'918.5
2019-Jul-16 05:30N 57°40' E 011°01'918.3
2019-Jul-16 05:00N 57°34' E 011°14'918.1
2019-Jul-16 04:30N 57°28' E 011°27'918.7
2019-Jul-16 04:00N 57°19' E 011°32'918.2
2019-Jul-16 03:30N 57°11' E 011°38'918.2
2019-Jul-16 03:00N 57°02' E 011°44'1018.8
2019-Jul-16 02:28N 56°53' E 011°50'1516.3
2019-Jul-16 01:33N 56°38' E 011°47'218.9
2019-Jul-16 01:25N 56°36' E 011°44'919.1
2019-Jul-16 00:56N 56°28' E 011°36'918.9
2019-Jul-16 00:27N 56°20' E 011°28'918.2
2019-Jul-15 23:57N 56°12' E 011°20'918.4
2019-Jul-15 23:28N 56°06' E 011°09'918.3
2019-Jul-15 22:59N 55°58' E 011°01'918.2
2019-Jul-15 22:30N 55°51' E 010°51'917.6
2019-Jul-15 22:00N 55°42' E 010°48'917.8
2019-Jul-15 21:29N 55°33' E 010°51'917.8
2019-Jul-15 20:59N 55°26' E 010°59'917.8
2019-Jul-15 20:30N 55°18' E 011°03'917.2
2019-Jul-15 20:00N 55°09' E 011°04'918.8
2019-Jul-15 19:30N 54°60' E 011°02'918.4
2019-Jul-15 19:00N 54°52' E 010°54'918.2
2019-Jul-15 18:30N 54°43' E 010°53'917.3
2019-Jul-15 18:00N 54°36' E 010°44'918.3
2019-Jul-15 17:30N 54°32' E 010°29'816.0
2019-Jul-15 17:00N 54°29' E 010°17'612.4
2019-Jul-15 16:30N 54°23' E 010°12'4 8.3
2019-Jul-15 16:00N 54°20' E 010°09'0 0.0
2019-Jul-15 15:29N 54°20' E 010°09'0 0.0
2019-Jul-15 14:59N 54°20' E 010°09'0 0.0
2019-Jul-15 14:29N 54°20' E 010°09'0 0.0
2019-Jul-15 13:59N 54°20' E 010°09'0 0.0
2019-Jul-15 13:29N 54°20' E 010°09'0 0.0
2019-Jul-15 12:59N 54°20' E 010°09'0 0.0
2019-Jul-15 12:29N 54°20' E 010°09'0 0.0
2019-Jul-15 11:59N 54°20' E 010°09'0 0.0
2019-Jul-15 11:29N 54°20' E 010°09'0 0.0
2019-Jul-15 10:59N 54°20' E 010°09'0 0.0
2019-Jul-15 10:29N 54°20' E 010°09'0 0.0
2019-Jul-15 09:59N 54°20' E 010°09'0 0.0
2019-Jul-15 09:29N 54°20' E 010°09'0 0.0
2019-Jul-15 08:59N 54°20' E 010°09'0 0.0
2019-Jul-15 08:29N 54°20' E 010°09'0 0.0
2019-Jul-15 07:59N 54°20' E 010°09'0 0.0
2019-Jul-15 07:29N 54°20' E 010°09'0 0.0
2019-Jul-15 06:59N 54°20' E 010°09'0 0.0
2019-Jul-15 06:29N 54°20' E 010°09'0 0.0
2019-Jul-15 05:59N 54°20' E 010°09'0 0.0
2019-Jul-15 05:29N 54°20' E 010°09'0 0.0
2019-Jul-15 04:59N 54°20' E 010°09'0 0.0
2019-Jul-15 04:31N 54°20' E 010°09'0 0.1
2019-Jul-15 04:00N 54°19' E 010°09'4 8.5
2019-Jul-15 03:30N 54°23' E 010°12'713.3
2019-Jul-15 03:01N 54°29' E 010°17'612.2
2019-Jul-15 02:30N 54°32' E 010°26'613.0
2019-Jul-15 02:00N 54°35' E 010°36'611.9
2019-Jul-15 01:31N 54°39' E 010°44'611.6
2019-Jul-15 01:01N 54°42' E 010°52'611.9
2019-Jul-15 00:30N 54°48' E 010°52'612.1
2019-Jul-15 00:01N 54°54' E 010°53'611.8
2019-Jul-14 23:31N 54°59' E 010°60'611.8
2019-Jul-14 23:00N 55°05' E 011°02'612.1
2019-Jul-14 22:31N 55°11' E 011°04'510.6
2019-Jul-14 22:00N 55°16' E 011°04'612.4
2019-Jul-14 21:30N 55°22' E 011°02'712.8
2019-Jul-14 20:57N 55°28' E 010°55'612.9
2019-Jul-14 20:29N 55°33' E 010°50'612.3
2019-Jul-14 19:59N 55°39' E 010°45'612.3
2019-Jul-14 19:30N 55°39' E 010°35'713.3
2019-Jul-14 19:00N 55°40' E 010°23'713.4
2019-Jul-14 18:30N 55°40' E 010°11'913.1
2019-Jul-14 17:47N 55°37' E 009°56'712.6
2019-Jul-14 17:16N 55°33' E 009°46'0 1.3
2019-Jul-14 16:55N 55°33' E 009°46'0 0.0
2019-Jul-14 15:40N 55°33' E 009°46'0 0.0
2019-Jul-14 15:28N 55°33' E 009°46'0 0.0
2019-Jul-14 14:55N 55°33' E 009°46'0 0.0
2019-Jul-14 14:28N 55°33' E 009°46'0 0.0
2019-Jul-14 13:19N 55°33' E 009°46'0 0.0
2019-Jul-14 12:25N 55°33' E 009°46'0 0.0
2019-Jul-14 10:22N 55°33' E 009°46'0 0.1
2019-Jul-14 09:56N 55°33' E 009°45'6 9.4
2019-Jul-14 09:20N 55°36' E 009°54'916.6
2019-Jul-14 08:46N 55°41' E 010°08'616.9
2019-Jul-14 08:25N 55°40' E 010°19'816.7
2019-Jul-14 07:56N 55°39' E 010°33'916.7
2019-Jul-14 07:25N 55°43' E 010°47'716.7
2019-Jul-14 07:00N 55°50' E 010°49'916.8
2019-Jul-14 06:27N 55°57' E 010°59'916.7
2019-Jul-14 05:54N 56°05' E 011°07'716.7
2019-Jul-14 05:30N 56°10' E 011°15'816.8
2019-Jul-14 05:00N 56°17' E 011°23'816.7
2019-Jul-14 04:30N 56°24' E 011°30'816.5
2019-Jul-14 04:00N 56°32' E 011°37'816.8
2019-Jul-14 03:30N 56°39' E 011°45'816.5
2019-Jul-14 03:00N 56°47' E 011°50'917.1
2019-Jul-14 02:30N 56°55' E 011°46'917.2
2019-Jul-14 02:00N 57°03' E 011°40'917.5
2019-Jul-14 01:30N 57°11' E 011°33'816.9
2019-Jul-14 01:00N 57°19' E 011°29'816.1
2019-Jul-14 00:31N 57°26' E 011°24'816.5
2019-Jul-14 00:00N 57°32' E 011°13'816.9
2019-Jul-13 23:31N 57°37' E 011°00'917.2
2019-Jul-13 23:00N 57°44' E 010°51'816.7
2019-Jul-13 22:31N 57°47' E 010°37'917.6
2019-Jul-13 22:00N 57°46' E 010°21'917.6
2019-Jul-13 21:30N 57°44' E 010°05'918.7
2019-Jul-13 21:00N 57°41' E 009°48'1019.3
2019-Jul-13 20:31N 57°38' E 009°31'1019.1
2019-Jul-13 20:00N 57°35' E 009°14'1019.0
2019-Jul-13 19:30N 57°31' E 008°58'918.7
2019-Jul-13 19:00N 57°27' E 008°42'918.7
2019-Jul-13 18:30N 57°23' E 008°26'918.2
2019-Jul-13 18:00N 57°16' E 008°15'918.6
2019-Jul-13 17:30N 57°09' E 008°05'918.4
2019-Jul-13 17:00N 57°01' E 007°55'917.9
2019-Jul-13 16:30N 56°53' E 007°50'918.1
2019-Jul-13 16:00N 56°44' E 007°47'918.1
2019-Jul-13 15:30N 56°35' E 007°44'918.1
2019-Jul-13 14:59N 56°26' E 007°39'918.1
2019-Jul-13 14:30N 56°18' E 007°35'918.3
2019-Jul-13 14:00N 56°08' E 007°31'918.5
2019-Jul-13 13:30N 55°60' E 007°29'918.3
2019-Jul-13 13:00N 55°51' E 007°22'918.4
2019-Jul-13 12:30N 55°42' E 007°18'918.1
2019-Jul-13 12:00N 55°33' E 007°22'1018.9
2019-Jul-13 11:30N 55°27' E 007°34'918.8
2019-Jul-13 11:00N 55°20' E 007°45'918.8
2019-Jul-13 10:30N 55°13' E 007°57'1018.0
2019-Jul-13 09:57N 55°07' E 008°10'8 8.3
2019-Jul-13 09:00N 55°04' E 008°23'4 1.7
2019-Jul-13 06:56N 55°01' E 008°27'0 0.0
2019-Jul-13 05:35N 55°01' E 008°27'54 1.9
2019-Jul-12 00:51N 54°10' E 008°01'4 9.1
2019-Jul-12 00:28N 54°06' E 008°02'4 9.5
2019-Jul-12 00:00N 54°02' E 008°04'611.3
2019-Jul-11 23:30N 54°00' E 008°13'816.3
2019-Jul-11 23:00N 53°59' E 008°26'917.0
2019-Jul-11 22:30N 53°56' E 008°40'713.7
2019-Jul-11 22:00N 53°51' E 008°47'815.6
2019-Jul-11 21:30N 53°51' E 009°00'612.8
2019-Jul-11 21:01N 53°53' E 009°11'510.2
2019-Jul-11 20:31N 53°51' E 009°19'611.5
2019-Jul-11 20:01N 53°46' E 009°24'510.9
2019-Jul-11 19:31N 53°42' E 009°30'510.5
2019-Jul-11 19:01N 53°37' E 009°33'510.4
2019-Jul-11 18:31N 53°34' E 009°40'5 9.1
2019-Jul-11 18:01N 53°33' E 009°48'5 9.5
2019-Jul-11 17:31N 53°33' E 009°56'2 4.9
2019-Jul-11 17:01N 53°32' E 009°60'0 0.0
2019-Jul-11 16:30N 53°32' E 009°60'0 0.0
2019-Jul-11 15:59N 53°32' E 009°60'0 0.0
2019-Jul-11 15:30N 53°32' E 009°60'0 0.0
2019-Jul-11 15:00N 53°32' E 009°60'0 0.0
2019-Jul-11 14:30N 53°32' E 009°60'0 0.0
2019-Jul-11 14:00N 53°32' E 009°60'0 0.0
2019-Jul-11 13:29N 53°32' E 009°60'0 0.0
2019-Jul-11 13:00N 53°32' E 009°60'0 0.0
2019-Jul-11 12:30N 53°32' E 009°60'0 0.0
2019-Jul-11 12:00N 53°32' E 009°60'0 0.0
2019-Jul-11 11:30N 53°32' E 009°60'0 0.0
2019-Jul-11 11:00N 53°32' E 009°60'0 0.0
2019-Jul-11 10:30N 53°32' E 009°60'0 0.0
2019-Jul-11 10:00N 53°32' E 009°60'0 0.0
2019-Jul-11 09:30N 53°32' E 009°60'0 0.0
2019-Jul-11 09:00N 53°32' E 009°60'0 0.0
2019-Jul-11 08:30N 53°32' E 009°60'0 0.0
2019-Jul-11 08:00N 53°32' E 009°60'0 0.0
2019-Jul-11 07:29N 53°32' E 009°60'0 0.0
2019-Jul-11 06:57N 53°32' E 009°60'0 0.0
2019-Jul-11 06:30N 53°32' E 009°60'0 0.0
2019-Jul-11 06:00N 53°32' E 009°60'0 0.0
2019-Jul-11 05:30N 53°32' E 009°60'0 0.0
2019-Jul-11 05:00N 53°32' E 009°60'0 0.0
2019-Jul-11 04:30N 53°32' E 009°60'0 0.0
2019-Jul-11 04:00N 53°32' E 009°60'0 0.0
2019-Jul-11 03:30N 53°32' E 009°60'0 0.0
2019-Jul-11 03:00N 53°32' E 009°60'0 0.0
2019-Jul-11 02:29N 53°32' E 009°60'0 0.0
2019-Jul-11 02:00N 53°32' E 009°60'0 0.0
2019-Jul-11 01:30N 53°32' E 009°60'0 0.0
2019-Jul-11 01:00N 53°32' E 009°60'0 0.0
2019-Jul-11 00:30N 53°32' E 009°60'0 0.0
2019-Jul-11 00:00N 53°32' E 009°60'0 0.0
2019-Jul-10 23:30N 53°32' E 009°60'0 0.0
2019-Jul-10 23:00N 53°32' E 009°60'0 0.0
2019-Jul-10 22:29N 53°32' E 009°60'0 0.0
2019-Jul-10 22:00N 53°32' E 009°60'0 0.0
2019-Jul-10 21:30N 53°32' E 009°60'0 0.0
2019-Jul-10 21:00N 53°32' E 009°60'0 0.0
2019-Jul-10 20:30N 53°32' E 009°60'0 0.0
2019-Jul-10 20:00N 53°32' E 009°60'0 0.0
2019-Jul-10 19:30N 53°32' E 009°60'2 3.0
2019-Jul-10 19:00N 53°33' E 009°57'4 8.1
2019-Jul-10 18:31N 53°33' E 009°51'510.6
2019-Jul-10 18:01N 53°34' E 009°42'612.7
2019-Jul-10 17:30N 53°37' E 009°33'612.8
2019-Jul-10 17:00N 53°43' E 009°28'713.5
2019-Jul-10 16:30N 53°49' E 009°22'713.4
2019-Jul-10 16:00N 53°53' E 009°13'611.2
2019-Jul-10 15:30N 53°52' E 009°03'612.6
2019-Jul-10 15:00N 53°50' E 008°53'612.0
2019-Jul-10 14:30N 53°52' E 008°43'713.8
2019-Jul-10 14:00N 53°58' E 008°36'816.5
2019-Jul-10 13:30N 53°59' E 008°22'815.3
2019-Jul-10 13:00N 53°59' E 008°09'816.0
2019-Jul-10 12:30N 53°58' E 007°56'917.2
2019-Jul-10 11:58N 53°56' E 007°41'816.9
2019-Jul-10 11:30N 53°54' E 007°28'816.7
2019-Jul-10 11:00N 53°52' E 007°14'816.5
2019-Jul-10 10:30N 53°50' E 007°01'816.3
2019-Jul-10 10:00N 53°48' E 006°47'816.1
2019-Jul-10 09:30N 53°46' E 006°34'5016.0
2019-Jul-10 06:23N 53°31' E 005°13'615.9
2019-Jul-10 05:59N 53°29' E 005°03'816.0
2019-Jul-10 05:30N 53°26' E 004°51'815.7
2019-Jul-10 05:00N 53°22' E 004°40'816.4
2019-Jul-10 04:30N 53°14' E 004°35'816.4
2019-Jul-10 04:00N 53°07' E 004°29'816.5
2019-Jul-10 03:30N 53°00' E 004°21'816.4
2019-Jul-10 03:00N 52°53' E 004°17'816.3
2019-Jul-10 02:30N 52°46' E 004°09'816.3
2019-Jul-10 02:00N 52°40' E 004°00'816.4
2019-Jul-10 01:30N 52°34' E 003°51'816.6
2019-Jul-10 01:00N 52°28' E 003°41'816.9
2019-Jul-10 00:30N 52°22' E 003°31'917.1
2019-Jul-10 00:00N 52°16' E 003°21'917.4
2019-Jul-09 23:30N 52°10' E 003°11'917.6
2019-Jul-09 23:00N 52°03' E 003°03'713.6
2019-Jul-09 22:30N 51°59' E 002°54'918.0
2019-Jul-09 22:00N 51°52' E 002°45'918.2
2019-Jul-09 21:30N 51°45' E 002°35'918.4
2019-Jul-09 21:01N 51°38' E 002°26'918.5
2019-Jul-09 20:30N 51°31' E 002°16'918.2
2019-Jul-09 20:00N 51°23' E 002°08'816.4
2019-Jul-09 19:30N 51°15' E 002°05'918.8
2019-Jul-09 19:01N 51°10' E 001°53'1019.4
2019-Jul-09 18:31N 51°06' E 001°38'918.4
2019-Jul-09 18:00N 51°06' E 001°24'3 3.8
2019-Jul-09 17:15N 51°07' E 001°19'0 0.0
2019-Jul-09 17:00N 51°07' E 001°19'0 0.0
2019-Jul-09 16:27N 51°07' E 001°19'0 0.0
2019-Jul-09 15:54N 51°07' E 001°19'0 0.0
2019-Jul-09 15:30N 51°07' E 001°19'0 0.0
2019-Jul-09 15:00N 51°07' E 001°19'0 0.0
2019-Jul-09 14:30N 51°07' E 001°19'0 0.0
2019-Jul-09 13:54N 51°07' E 001°19'0 0.0
2019-Jul-09 13:24N 51°07' E 001°19'0 0.0
2019-Jul-09 13:00N 51°07' E 001°19'0 0.0
2019-Jul-09 12:21N 51°07' E 001°19'0 0.0
2019-Jul-09 12:00N 51°07' E 001°19'0 0.0
2019-Jul-09 11:30N 51°07' E 001°19'0 0.0
2019-Jul-09 11:00N 51°07' E 001°19'0 0.0
2019-Jul-09 10:30N 51°07' E 001°19'0 0.0
2019-Jul-09 10:00N 51°07' E 001°19'0 0.0
2019-Jul-09 09:30N 51°07' E 001°19'0 0.0
2019-Jul-09 08:57N 51°07' E 001°19'0 0.0
2019-Jul-09 08:30N 51°07' E 001°19'0 0.0
2019-Jul-09 08:00N 51°07' E 001°19'0 0.0
2019-Jul-09 07:27N 51°07' E 001°19'0 0.0
2019-Jul-09 06:57N 51°07' E 001°19'0 0.0
2019-Jul-09 06:30N 51°07' E 001°19'0 0.4
2019-Jul-09 06:01N 51°07' E 001°20'3 5.7
2019-Jul-09 05:30N 51°07' E 001°24'4 9.0
2019-Jul-09 05:00N 51°03' E 001°28'4 8.3
2019-Jul-09 04:30N 50°59' E 001°27'  

Dump ship's entire track history